KBIS/BIS METAR and TAF weather

Enter ICAO airport designator
Station Type Date Time Source
KBIS METAR 2019/06/26 17:52 UTC NOAA

KBIS 261752Z 19008KT 10SM CLR 26/13 A2997 RMK AO2 SLP143 T02560133 10261 20156 58003


Station Type Date Time Source
KBIS Decoded METAR 2019/06/26 17:52 UTC NOAA

BISMARCK MUNICIPAL AIRPORT, ND, United States (KBIS) 46-47N 100-45W 503M
Jun 26, 2019 - 01:52 PM EDT / 2019.06.26 1752 UTC
Wind: from the S (190 degrees) at 9 MPH (8 KT):0
Visibility: 10 mile(s):0
Sky conditions: clear
Temperature: 78.1 F (25.6 C)
Dew Point: 55.9 F (13.3 C)
Relative Humidity: 46%
Pressure (altimeter): 29.97 in. Hg (1014 hPa)
Pressure tendency: 0.01 inches (0.3 hPa) lower than three hours ago
ob: KBIS 261752Z 19008KT 10SM CLR 26/13 A2997 RMK AO2 SLP143 T02560133 10261 20156 58003
cycle: 18

Station Type Date Time Source
KBIS TAF 2019/06/26 18:28 UTC NOAA

TAF KBIS 261726Z 2618/2718 20008KT P6SM FEW150
FM270800 09005KT P6SM VCTS SCT040CB BKN180
FM271300 03007KT P6SM SCT045 BKN200

Example: see airport list